sensor_id;sensor_type;location;lat;lon;timestamp;pressure;altitude;pressure_sealevel;temperature;humidity
6449;BME280;3257;52.298;13.690;2022-08-03T00:00:26;76485.31;;;-144.77;74.29
6449;BME280;3257;52.298;13.690;2022-08-03T00:02:52;76469.41;;;-144.77;74.12
6449;BME280;3257;52.298;13.690;2022-08-03T00:05:19;76475.38;;;-144.77;75.24
6449;BME280;3257;52.298;13.690;2022-08-03T00:07:46;76477.38;;;-144.77;75.24
6449;BME280;3257;52.298;13.690;2022-08-03T00:10:15;76479.34;;;-144.77;75.32
6449;BME280;3257;52.298;13.690;2022-08-03T00:12:41;76491.28;;;-144.77;76.24
6449;BME280;3257;52.298;13.690;2022-08-03T00:15:09;76483.31;;;-144.77;75.86
6449;BME280;3257;52.298;13.690;2022-08-03T00:17:42;76495.25;;;-144.77;76.24
6449;BME280;3257;52.298;13.690;2022-08-03T00:20:20;76487.28;;;-144.77;76.65
6449;BME280;3257;52.298;13.690;2022-08-03T00:22:48;76495.25;;;-144.77;76.91
6449;BME280;3257;52.298;13.690;2022-08-03T00:25:14;76501.22;;;-144.77;77.06
6449;BME280;3257;52.298;13.690;2022-08-03T00:27:41;76495.25;;;-144.77;77.12
6449;BME280;3257;52.298;13.690;2022-08-03T00:30:08;76505.19;;;-144.77;77.79
6449;BME280;3257;52.298;13.690;2022-08-03T00:32:34;76501.22;;;-144.77;77.51
6449;BME280;3257;52.298;13.690;2022-08-03T00:35:01;76505.19;;;-144.77;77.87
6449;BME280;3257;52.298;13.690;2022-08-03T00:37:33;76507.16;;;-144.77;78.03
6449;BME280;3257;52.298;13.690;2022-08-03T00:40:09;76511.16;;;-144.77;77.75
6449;BME280;3257;52.298;13.690;2022-08-03T00:42:46;76505.19;;;-144.77;77.68
6449;BME280;3257;52.298;13.690;2022-08-03T00:45:13;76513.13;;;-144.77;78.09
6449;BME280;3257;52.298;13.690;2022-08-03T00:47:40;76513.13;;;-144.77;78.37
6449;BME280;3257;52.298;13.690;2022-08-03T00:50:06;76521.09;;;-144.77;78.89
6449;BME280;3257;52.298;13.690;2022-08-03T00:52:34;76513.13;;;-144.77;78.93
6449;BME280;3257;52.298;13.690;2022-08-03T00:55:02;76515.13;;;-144.77;79.40
6449;BME280;3257;52.298;13.690;2022-08-03T00:57:31;76513.13;;;-144.77;79.14
6449;BME280;3257;52.298;13.690;2022-08-03T00:59:58;76511.16;;;-144.77;79.41
6449;BME280;3257;52.298;13.690;2022-08-03T01:02:28;76511.16;;;-144.77;79.33
6449;BME280;3257;52.298;13.690;2022-08-03T01:04:55;76513.13;;;-144.77;79.44
6449;BME280;3257;52.298;13.690;2022-08-03T01:10:14;76515.13;;;-144.77;79.67
6449;BME280;3257;52.298;13.690;2022-08-03T01:12:54;76519.09;;;-144.77;80.05
6449;BME280;3257;52.298;13.690;2022-08-03T01:18:57;76523.06;;;-144.77;81.47
6449;BME280;3257;52.298;13.690;2022-08-03T01:21:30;76515.13;;;-144.77;82.04
6449;BME280;3257;52.298;13.690;2022-08-03T01:24:10;76511.16;;;-144.77;82.67
6449;BME280;3257;52.298;13.690;2022-08-03T01:27:10;76509.16;;;-144.77;82.74
6449;BME280;3257;52.298;13.690;2022-08-03T01:32:40;76499.22;;;-144.77;82.45
6449;BME280;3257;52.298;13.690;2022-08-03T01:35:32;76507.16;;;-144.77;82.92
6449;BME280;3257;52.298;13.690;2022-08-03T01:38:17;76501.22;;;-144.77;83.30
6449;BME280;3257;52.298;13.690;2022-08-03T01:40:47;76503.19;;;-144.77;83.08
6449;BME280;3257;52.298;13.690;2022-08-03T01:43:18;76499.22;;;-144.77;83.20
6449;BME280;3257;52.298;13.690;2022-08-03T01:46:06;76495.25;;;-144.77;82.97
6449;BME280;3257;52.298;13.690;2022-08-03T01:48:35;76491.28;;;-144.77;82.82
6449;BME280;3257;52.298;13.690;2022-08-03T01:51:03;76483.31;;;-144.77;82.83
6449;BME280;3257;52.298;13.690;2022-08-03T01:53:32;76481.34;;;-144.77;82.47
6449;BME280;3257;52.298;13.690;2022-08-03T01:56:01;76469.41;;;-144.77;82.34
6449;BME280;3257;52.298;13.690;2022-08-03T01:58:29;76469.41;;;-144.77;81.88
6449;BME280;3257;52.298;13.690;2022-08-03T02:00:57;76463.44;;;-144.77;81.67
6449;BME280;3257;52.298;13.690;2022-08-03T02:03:33;76451.53;;;-144.77;81.21
6449;BME280;3257;52.298;13.690;2022-08-03T02:06:02;76451.53;;;-144.77;80.97
6449;BME280;3257;52.298;13.690;2022-08-03T02:08:51;76445.56;;;-144.77;80.79
6449;BME280;3257;52.298;13.690;2022-08-03T02:11:19;76443.59;;;-144.77;80.33
6449;BME280;3257;52.298;13.690;2022-08-03T02:13:47;76445.56;;;-144.77;80.30
6449;BME280;3257;52.298;13.690;2022-08-03T02:16:16;76451.53;;;-144.77;80.29
6449;BME280;3257;52.298;13.690;2022-08-03T02:18:45;76449.53;;;-144.77;80.24
6449;BME280;3257;52.298;13.690;2022-08-03T02:21:14;76447.56;;;-144.77;80.47
6449;BME280;3257;52.298;13.690;2022-08-03T02:24:01;76435.63;;;-144.77;80.04
6449;BME280;3257;52.298;13.690;2022-08-03T02:26:30;76425.69;;;-144.77;80.19
6449;BME280;3257;52.298;13.690;2022-08-03T02:29:02;76425.69;;;-144.77;79.89
6449;BME280;3257;52.298;13.690;2022-08-03T02:31:32;76413.78;;;-144.77;79.67
6449;BME280;3257;52.298;13.690;2022-08-03T02:34:02;76419.72;;;-144.77;79.79
6449;BME280;3257;52.298;13.690;2022-08-03T02:36:33;76415.75;;;-144.77;79.42
6449;BME280;3257;52.298;13.690;2022-08-03T02:39:00;76409.81;;;-144.77;78.92
6449;BME280;3257;52.298;13.690;2022-08-03T02:41:31;76403.84;;;-144.77;78.81
6449;BME280;3257;52.298;13.690;2022-08-03T02:44:03;76401.84;;;-144.77;78.30
6449;BME280;3257;52.298;13.690;2022-08-03T02:46:37;76395.91;;;-144.77;78.03
6449;BME280;3257;52.298;13.690;2022-08-03T02:49:05;76389.94;;;-144.77;77.34
6449;BME280;3257;52.298;13.690;2022-08-03T02:51:53;76395.91;;;-144.77;76.39
6449;BME280;3257;52.298;13.690;2022-08-03T02:54:24;76383.97;;;-144.77;75.46
6449;BME280;3257;52.298;13.690;2022-08-03T02:56:53;76387.94;;;-144.77;74.87
6449;BME280;3257;52.298;13.690;2022-08-03T02:59:22;76387.94;;;-144.77;74.97
6449;BME280;3257;52.298;13.690;2022-08-03T03:01:49;76383.97;;;-144.77;74.92
6449;BME280;3257;52.298;13.690;2022-08-03T03:04:17;76389.94;;;-144.77;75.13
6449;BME280;3257;52.298;13.690;2022-08-03T03:06:46;76389.94;;;-144.77;74.82
6449;BME280;3257;52.298;13.690;2022-08-03T03:09:14;76395.91;;;-144.77;74.60
6449;BME280;3257;52.298;13.690;2022-08-03T03:11:43;76409.81;;;-144.77;74.42
6449;BME280;3257;52.298;13.690;2022-08-03T03:14:10;76413.78;;;-144.77;74.37
6449;BME280;3257;52.298;13.690;2022-08-03T03:16:39;76419.72;;;-144.77;74.04
6449;BME280;3257;52.298;13.690;2022-08-03T03:19:08;76423.72;;;-144.77;73.95
6449;BME280;3257;52.298;13.690;2022-08-03T03:21:36;76427.69;;;-144.77;73.83
6449;BME280;3257;52.298;13.690;2022-08-03T03:24:05;76425.69;;;-144.77;74.09
6449;BME280;3257;52.298;13.690;2022-08-03T03:26:32;76425.69;;;-144.77;73.83
6449;BME280;3257;52.298;13.690;2022-08-03T03:29:00;76419.72;;;-144.77;73.69
6449;BME280;3257;52.298;13.690;2022-08-03T03:31:28;76419.72;;;-144.77;73.65
6449;BME280;3257;52.298;13.690;2022-08-03T03:33:56;76411.78;;;-144.77;73.51
6449;BME280;3257;52.298;13.690;2022-08-03T03:36:23;76411.78;;;-144.77;73.84
6449;BME280;3257;52.298;13.690;2022-08-03T03:38:50;76413.78;;;-144.77;73.84
6449;BME280;3257;52.298;13.690;2022-08-03T03:41:19;76405.81;;;-144.77;73.92
6449;BME280;3257;52.298;13.690;2022-08-03T03:43:46;76411.78;;;-144.77;73.97
6449;BME280;3257;52.298;13.690;2022-08-03T03:46:15;76403.84;;;-144.77;74.28
6449;BME280;3257;52.298;13.690;2022-08-03T03:48:41;76403.84;;;-144.77;74.58
6449;BME280;3257;52.298;13.690;2022-08-03T03:51:09;76399.88;;;-144.77;74.59
6449;BME280;3257;52.298;13.690;2022-08-03T03:53:36;76405.81;;;-144.77;74.88
6449;BME280;3257;52.298;13.690;2022-08-03T03:56:03;76405.81;;;-144.77;74.94
6449;BME280;3257;52.298;13.690;2022-08-03T03:58:31;76401.84;;;-144.77;74.74
6449;BME280;3257;52.298;13.690;2022-08-03T04:00:58;76397.88;;;-144.77;74.63
6449;BME280;3257;52.298;13.690;2022-08-03T04:03:25;76387.94;;;-144.77;74.27
6449;BME280;3257;52.298;13.690;2022-08-03T04:05:52;76399.88;;;-144.77;74.29
6449;BME280;3257;52.298;13.690;2022-08-03T04:08:38;76399.88;;;-144.77;74.37
6449;BME280;3257;52.298;13.690;2022-08-03T04:11:50;76397.88;;;-144.77;74.22
6449;BME280;3257;52.298;13.690;2022-08-03T04:14:22;76401.84;;;-144.77;73.89
6449;BME280;3257;52.298;13.690;2022-08-03T04:16:54;76407.81;;;-144.77;74.04
6449;BME280;3257;52.298;13.690;2022-08-03T04:19:35;76407.81;;;-144.77;73.76
6449;BME280;3257;52.298;13.690;2022-08-03T04:22:06;76421.72;;;-144.77;73.60
6449;BME280;3257;52.298;13.690;2022-08-03T04:25:04;76417.75;;;-144.77;73.91
6449;BME280;3257;52.298;13.690;2022-08-03T04:27:32;76429.66;;;-144.77;73.91
6449;BME280;3257;52.298;13.690;2022-08-03T04:30:02;76427.69;;;-144.77;74.13
6449;BME280;3257;52.298;13.690;2022-08-03T04:32:30;76435.63;;;-144.77;74.22
6449;BME280;3257;52.298;13.690;2022-08-03T04:34:57;76433.66;;;-144.77;74.12
6449;BME280;3257;52.298;13.690;2022-08-03T04:37:34;76437.63;;;-144.77;74.39
6449;BME280;3257;52.298;13.690;2022-08-03T04:40:07;76433.66;;;-144.77;74.25
6449;BME280;3257;52.298;13.690;2022-08-03T04:42:36;76433.66;;;-144.77;74.66
6449;BME280;3257;52.298;13.690;2022-08-03T04:45:03;76431.66;;;-144.77;74.64
6449;BME280;3257;52.298;13.690;2022-08-03T04:47:34;76431.66;;;-144.77;74.57
6449;BME280;3257;52.298;13.690;2022-08-03T04:50:04;76429.66;;;-144.77;74.69
6449;BME280;3257;52.298;13.690;2022-08-03T04:52:38;76423.72;;;-144.77;74.69
6449;BME280;3257;52.298;13.690;2022-08-03T04:55:05;76421.72;;;-144.77;74.67
6449;BME280;3257;52.298;13.690;2022-08-03T04:57:32;76411.78;;;-144.77;74.89
6449;BME280;3257;52.298;13.690;2022-08-03T04:59:58;76407.81;;;-144.77;74.59
6449;BME280;3257;52.298;13.690;2022-08-03T05:02:29;76397.88;;;-144.77;74.35
6449;BME280;3257;52.298;13.690;2022-08-03T05:04:57;76387.94;;;-144.77;74.00
6449;BME280;3257;52.298;13.690;2022-08-03T05:07:24;76378.00;;;-144.77;73.88
6449;BME280;3257;52.298;13.690;2022-08-03T05:09:51;76364.09;;;-144.77;73.38
6449;BME280;3257;52.298;13.690;2022-08-03T05:12:28;76354.16;;;-144.77;71.75
6449;BME280;3257;52.298;13.690;2022-08-03T05:14:59;76336.28;;;-144.77;71.46
6449;BME280;3257;52.298;13.690;2022-08-03T05:17:26;76326.34;;;-144.77;71.06
6449;BME280;3257;52.298;13.690;2022-08-03T05:19:53;76318.41;;;-144.77;70.50
6449;BME280;3257;52.298;13.690;2022-08-03T05:22:20;76308.47;;;-144.77;70.10
6449;BME280;3257;52.298;13.690;2022-08-03T05:24:47;76312.44;;;-144.77;69.82
6449;BME280;3257;52.298;13.690;2022-08-03T05:27:14;76304.50;;;-144.77;69.48
6449;BME280;3257;52.298;13.690;2022-08-03T05:29:48;76296.53;;;-144.77;69.49
6449;BME280;3257;52.298;13.690;2022-08-03T05:32:16;76288.59;;;-144.77;69.54
6449;BME280;3257;52.298;13.690;2022-08-03T05:34:43;76282.63;;;-144.77;68.85
6449;BME280;3257;52.298;13.690;2022-08-03T05:37:10;76278.66;;;-144.77;68.29
6449;BME280;3257;52.298;13.690;2022-08-03T05:39:37;76262.75;;;-144.77;67.58
6449;BME280;3257;52.298;13.690;2022-08-03T05:42:03;76252.81;;;-144.77;66.74
6449;BME280;3257;52.298;13.690;2022-08-03T05:44:30;76238.91;;;-144.77;66.29
6449;BME280;3257;52.298;13.690;2022-08-03T05:46:57;76232.94;;;-144.77;65.31
6449;BME280;3257;52.298;13.690;2022-08-03T05:49:24;76227.00;;;-144.77;65.43
6449;BME280;3257;52.298;13.690;2022-08-03T05:51:51;76227.00;;;-144.77;65.06
6449;BME280;3257;52.298;13.690;2022-08-03T05:54:34;76221.03;;;-144.77;63.49
6449;BME280;3257;52.298;13.690;2022-08-03T05:57:24;76187.25;;;-144.77;62.64
6449;BME280;3257;52.298;13.690;2022-08-03T05:59:51;76169.38;;;-144.77;62.64
6449;BME280;3257;52.298;13.690;2022-08-03T06:02:25;76157.44;;;-144.77;61.77
6449;BME280;3257;52.298;13.690;2022-08-03T06:04:52;76141.56;;;-144.77;60.99
6449;BME280;3257;52.298;13.690;2022-08-03T06:07:18;76129.63;;;-144.77;60.26
6449;BME280;3257;52.298;13.690;2022-08-03T06:09:45;76121.69;;;-144.77;57.92
6449;BME280;3257;52.298;13.690;2022-08-03T06:12:31;76095.84;;;-144.77;57.27
6449;BME280;3257;52.298;13.690;2022-08-03T06:17:28;76060.09;;;-144.77;56.11
6449;BME280;3257;52.298;13.690;2022-08-03T06:20:04;76052.16;;;-144.77;56.20
6449;BME280;3257;52.298;13.690;2022-08-03T06:22:32;76046.19;;;-144.77;55.63
6449;BME280;3257;52.298;13.690;2022-08-03T06:24:59;76046.19;;;-144.77;55.62
6449;BME280;3257;52.298;13.690;2022-08-03T06:27:33;76036.25;;;-144.77;55.72
6449;BME280;3257;52.298;13.690;2022-08-03T06:30:03;76028.31;;;-144.77;55.34
6449;BME280;3257;52.298;13.690;2022-08-03T06:32:30;76016.38;;;-144.77;54.27
6449;BME280;3257;52.298;13.690;2022-08-03T06:34:56;76006.44;;;-144.77;52.58
6449;BME280;3257;52.298;13.690;2022-08-03T06:37:23;75998.50;;;-144.77;52.74
6449;BME280;3257;52.298;13.690;2022-08-03T06:39:50;75998.50;;;-144.77;52.75
6449;BME280;3257;52.298;13.690;2022-08-03T06:42:16;75996.50;;;-144.77;53.17
6449;BME280;3257;52.298;13.690;2022-08-03T06:44:45;75992.53;;;-144.77;53.12
6449;BME280;3257;52.298;13.690;2022-08-03T06:47:12;75998.50;;;-144.77;53.61
6449;BME280;3257;52.298;13.690;2022-08-03T06:49:39;75986.56;;;-144.77;52.76
6449;BME280;3257;52.298;13.690;2022-08-03T06:52:06;75972.66;;;-144.77;52.54
6449;BME280;3257;52.298;13.690;2022-08-03T06:54:34;75944.84;;;-144.77;51.12
6449;BME280;3257;52.298;13.690;2022-08-03T06:57:01;75919.03;;;-144.77;50.29
6449;BME280;3257;52.298;13.690;2022-08-03T06:59:27;75903.13;;;-144.77;49.83
6449;BME280;3257;52.298;13.690;2022-08-03T07:02:14;75883.25;;;-144.77;48.63
6449;BME280;3257;52.298;13.690;2022-08-03T07:04:48;75871.34;;;-144.77;48.46
6449;BME280;3257;52.298;13.690;2022-08-03T07:07:15;75859.41;;;-144.77;48.06
6449;BME280;3257;52.298;13.690;2022-08-03T07:09:42;75843.53;;;-144.77;48.64
6449;BME280;3257;52.298;13.690;2022-08-03T07:12:24;75819.69;;;-144.77;46.42
6449;BME280;3257;52.298;13.690;2022-08-03T07:14:51;75813.72;;;-144.77;46.52
6449;BME280;3257;52.298;13.690;2022-08-03T07:17:25;75785.91;;;-144.77;46.51
6449;BME280;3257;52.298;13.690;2022-08-03T07:19:52;75762.06;;;-144.77;45.26
6449;BME280;3257;52.298;13.690;2022-08-03T07:22:19;75748.16;;;-144.77;46.12
6449;BME280;3257;52.298;13.690;2022-08-03T07:24:45;75726.31;;;-144.77;45.75
6449;BME280;3257;52.298;13.690;2022-08-03T07:27:14;75712.41;;;-144.77;46.89
6449;BME280;3257;52.298;13.690;2022-08-03T07:29:41;75700.47;;;-144.77;44.34
6449;BME280;3257;52.298;13.690;2022-08-03T07:32:08;75680.63;;;-144.77;46.19
6449;BME280;3257;52.298;13.690;2022-08-03T07:34:34;75668.69;;;-144.77;44.42
6449;BME280;3257;52.298;13.690;2022-08-03T07:37:01;75660.75;;;-144.77;44.24
6449;BME280;3257;52.298;13.690;2022-08-03T07:39:27;75640.88;;;-144.77;44.37
6449;BME280;3257;52.298;13.690;2022-08-03T07:41:54;75626.97;;;-144.77;43.49
6449;BME280;3257;52.298;13.690;2022-08-03T07:44:21;75601.16;;;-144.77;43.77
6449;BME280;3257;52.298;13.690;2022-08-03T07:46:47;75595.19;;;-144.77;42.21
6449;BME280;3257;52.298;13.690;2022-08-03T07:49:17;75571.34;;;-144.77;40.72
6449;BME280;3257;52.298;13.690;2022-08-03T07:51:43;75553.47;;;-144.77;41.48
6449;BME280;3257;52.298;13.690;2022-08-03T07:54:10;75535.59;;;-144.77;40.26
6449;BME280;3257;52.298;13.690;2022-08-03T07:56:37;75527.66;;;-144.77;39.67
6449;BME280;3257;52.298;13.690;2022-08-03T07:59:04;75513.75;;;-144.77;40.80
6449;BME280;3257;52.298;13.690;2022-08-03T08:01:31;75497.84;;;-144.77;40.94
6449;BME280;3257;52.298;13.690;2022-08-03T08:04:01;75485.94;;;-144.77;40.71
6449;BME280;3257;52.298;13.690;2022-08-03T08:06:27;75481.97;;;-144.77;39.66
6449;BME280;3257;52.298;13.690;2022-08-03T08:08:54;75454.16;;;-144.77;39.14
6449;BME280;3257;52.298;13.690;2022-08-03T08:11:24;75428.31;;;-144.77;38.94
6449;BME280;3257;52.298;13.690;2022-08-03T08:13:51;75426.34;;;-144.77;38.01
6449;BME280;3257;52.298;13.690;2022-08-03T08:16:17;75412.44;;;-144.77;38.03
6449;BME280;3257;52.298;13.690;2022-08-03T08:18:44;75398.53;;;-144.77;37.06
6449;BME280;3257;52.298;13.690;2022-08-03T08:21:11;75382.63;;;-144.77;36.96
6449;BME280;3257;52.298;13.690;2022-08-03T08:23:37;75374.69;;;-144.77;36.71
6449;BME280;3257;52.298;13.690;2022-08-03T08:26:09;75358.78;;;-144.77;37.24
6449;BME280;3257;52.298;13.690;2022-08-03T08:28:35;75354.81;;;-144.77;36.46
6449;BME280;3257;52.298;13.690;2022-08-03T08:31:02;75319.06;;;-144.77;35.31
6449;BME280;3257;52.298;13.690;2022-08-03T08:33:29;75315.09;;;-144.77;35.79
6449;BME280;3257;52.298;13.690;2022-08-03T08:36:15;75301.19;;;-144.77;36.16
6449;BME280;3257;52.298;13.690;2022-08-03T08:38:42;75285.28;;;-144.77;35.04
6449;BME280;3257;52.298;13.690;2022-08-03T08:41:11;75279.34;;;-144.77;34.89
6449;BME280;3257;52.298;13.690;2022-08-03T08:43:38;75265.44;;;-144.77;35.57
6449;BME280;3257;52.298;13.690;2022-08-03T08:46:06;75243.59;;;-144.77;35.59
6449;BME280;3257;52.298;13.690;2022-08-03T08:48:39;75225.69;;;-144.77;34.30
6449;BME280;3257;52.298;13.690;2022-08-03T08:51:08;75199.88;;;-144.77;34.07
6449;BME280;3257;52.298;13.690;2022-08-03T08:53:36;75201.88;;;-144.77;34.43
6449;BME280;3257;52.298;13.690;2022-08-03T08:56:04;75205.84;;;-144.77;33.69
6449;BME280;3257;52.298;13.690;2022-08-03T08:58:36;75193.91;;;-144.77;34.11
6449;BME280;3257;52.298;13.690;2022-08-03T09:01:04;75189.94;;;-144.77;33.22
6449;BME280;3257;52.298;13.690;2022-08-03T09:03:34;75180.00;;;-144.77;33.57
6449;BME280;3257;52.298;13.690;2022-08-03T09:06:01;75182.00;;;-144.77;32.74
6449;BME280;3257;52.298;13.690;2022-08-03T09:08:29;75174.06;;;-144.77;31.39
6449;BME280;3257;52.298;13.690;2022-08-03T09:10:56;75154.19;;;-144.77;32.43
6449;BME280;3257;52.298;13.690;2022-08-03T09:13:23;75142.28;;;-144.77;31.14
6449;BME280;3257;52.298;13.690;2022-08-03T09:16:14;75126.38;;;-144.77;30.91
6449;BME280;3257;52.298;13.690;2022-08-03T09:18:43;75104.53;;;-144.77;31.47
6449;BME280;3257;52.298;13.690;2022-08-03T09:21:17;75078.72;;;-144.77;31.91
6449;BME280;3257;52.298;13.690;2022-08-03T09:24:01;75058.84;;;-144.77;31.71
6449;BME280;3257;52.298;13.690;2022-08-03T09:26:36;75064.81;;;-144.77;30.93
6449;BME280;3257;52.298;13.690;2022-08-03T09:29:08;75037.00;;;-144.77;31.69
6449;BME280;3257;52.298;13.690;2022-08-03T09:31:42;75035.00;;;-144.77;31.70
6449;BME280;3257;52.298;13.690;2022-08-03T09:34:15;75013.16;;;-144.77;30.99
6449;BME280;3257;52.298;13.690;2022-08-03T09:36:47;75001.25;;;-144.77;31.31
6449;BME280;3257;52.298;13.690;2022-08-03T09:39:22;74983.38;;;-144.77;31.14
6449;BME280;3257;52.298;13.690;2022-08-03T09:42:15;74971.44;;;-144.77;30.81
6449;BME280;3257;52.298;13.690;2022-08-03T09:44:50;74963.50;;;-144.77;29.93
6449;BME280;3257;52.298;13.690;2022-08-03T09:50:07;74943.66;;;-144.77;30.44
6449;BME280;3257;52.298;13.690;2022-08-03T09:52:39;74933.72;;;-144.77;31.19
6449;BME280;3257;52.298;13.690;2022-08-03T09:55:18;74925.78;;;-144.77;30.34
6449;BME280;3257;52.298;13.690;2022-08-03T09:58:06;74911.88;;;-144.77;29.73
6449;BME280;3257;52.298;13.690;2022-08-03T10:03:24;74882.06;;;-144.77;29.23
6449;BME280;3257;52.298;13.690;2022-08-03T10:05:51;74870.16;;;-144.77;29.57
6449;BME280;3257;52.298;13.690;2022-08-03T10:08:24;74848.31;;;-144.77;30.09
6449;BME280;3257;52.298;13.690;2022-08-03T10:10:52;74848.31;;;-144.77;29.27
6449;BME280;3257;52.298;13.690;2022-08-03T10:13:24;74826.47;;;-144.77;28.62
6449;BME280;3257;52.298;13.690;2022-08-03T10:15:50;74848.31;;;-144.77;28.61
6449;BME280;3257;52.298;13.690;2022-08-03T10:18:37;74822.50;;;-144.77;29.47
6449;BME280;3257;52.298;13.690;2022-08-03T10:21:07;74802.63;;;-144.77;28.66
6449;BME280;3257;52.298;13.690;2022-08-03T10:23:37;74794.69;;;-144.77;29.03
6449;BME280;3257;52.298;13.690;2022-08-03T10:26:07;74780.78;;;-144.77;29.25
6449;BME280;3257;52.298;13.690;2022-08-03T10:28:39;74774.81;;;-144.77;29.20
6449;BME280;3257;52.298;13.690;2022-08-03T10:31:12;74762.91;;;-144.77;28.86
6449;BME280;3257;52.298;13.690;2022-08-03T10:33:45;74770.84;;;-144.77;29.22
6449;BME280;3257;52.298;13.690;2022-08-03T10:36:22;74745.03;;;-144.77;29.51
6449;BME280;3257;52.298;13.690;2022-08-03T10:38:50;74729.13;;;-144.77;29.05
6449;BME280;3257;52.298;13.690;2022-08-03T10:41:25;74711.25;;;-144.77;29.37
6449;BME280;3257;52.298;13.690;2022-08-03T10:44:07;74711.25;;;-144.77;28.90
6449;BME280;3257;52.298;13.690;2022-08-03T10:46:38;74687.44;;;-144.77;28.52
6449;BME280;3257;52.298;13.690;2022-08-03T10:49:14;74673.53;;;-144.77;28.80
6449;BME280;3257;52.298;13.690;2022-08-03T10:51:45;74667.56;;;-144.77;28.17
6449;BME280;3257;52.298;13.690;2022-08-03T10:54:44;74685.44;;;-144.77;27.57
6449;BME280;3257;52.298;13.690;2022-08-03T10:57:51;74699.34;;;-144.77;27.86
6449;BME280;3257;52.298;13.690;2022-08-03T11:00:25;74713.25;;;-144.77;27.84
6449;BME280;3257;52.298;13.690;2022-08-03T11:03:12;74677.50;;;-144.77;28.32
6449;BME280;3257;52.298;13.690;2022-08-03T11:05:46;74667.56;;;-144.77;27.81
6449;BME280;3257;52.298;13.690;2022-08-03T11:10:53;74687.44;;;-144.77;27.66
6449;BME280;3257;52.298;13.690;2022-08-03T11:13:23;74665.59;;;-144.77;28.27
6449;BME280;3257;52.298;13.690;2022-08-03T11:15:52;74649.69;;;-144.77;28.93
6449;BME280;3257;52.298;13.690;2022-08-03T11:18:28;74631.81;;;-144.77;28.85
6449;BME280;3257;52.298;13.690;2022-08-03T11:20:57;74611.97;;;-144.77;28.99
6449;BME280;3257;52.298;13.690;2022-08-03T11:23:41;74615.94;;;-144.77;29.18
6449;BME280;3257;52.298;13.690;2022-08-03T11:26:28;74647.72;;;-144.77;28.47
6449;BME280;3257;52.298;13.690;2022-08-03T11:29:28;74643.75;;;-144.77;28.13
6449;BME280;3257;52.298;13.690;2022-08-03T11:31:55;74631.81;;;-144.77;27.75
6449;BME280;3257;52.298;13.690;2022-08-03T11:34:22;74629.84;;;-144.77;27.89
6449;BME280;3257;52.298;13.690;2022-08-03T11:37:21;74639.75;;;-144.77;28.06
6449;BME280;3257;52.298;13.690;2022-08-03T11:39:53;74633.81;;;-144.77;28.55
6449;BME280;3257;52.298;13.690;2022-08-03T11:44:51;74568.28;;;-144.77;28.43
6449;BME280;3257;52.298;13.690;2022-08-03T11:47:19;74576.22;;;-144.77;27.86
6449;BME280;3257;52.298;13.690;2022-08-03T11:49:47;74566.28;;;-144.77;28.43
6449;BME280;3257;52.298;13.690;2022-08-03T11:52:14;74536.50;;;-144.77;27.99
6449;BME280;3257;52.298;13.690;2022-08-03T11:54:41;74558.34;;;-144.77;28.02
6449;BME280;3257;52.298;13.690;2022-08-03T11:57:08;74522.59;;;-144.77;27.80
6449;BME280;3257;52.298;13.690;2022-08-03T11:59:36;74522.59;;;-144.77;27.81
6449;BME280;3257;52.298;13.690;2022-08-03T12:02:12;74534.50;;;-144.77;28.36
6449;BME280;3257;52.298;13.690;2022-08-03T12:04:54;74546.41;;;-144.77;28.04
6449;BME280;3257;52.298;13.690;2022-08-03T12:07:24;74518.63;;;-144.77;27.40
6449;BME280;3257;52.298;13.690;2022-08-03T12:10:13;74510.66;;;-144.77;27.39
6449;BME280;3257;52.298;13.690;2022-08-03T12:12:41;74500.75;;;-144.77;27.32
6449;BME280;3257;52.298;13.690;2022-08-03T12:15:12;74482.88;;;-144.77;27.59
6449;BME280;3257;52.298;13.690;2022-08-03T12:17:39;74498.75;;;-144.77;27.49
6449;BME280;3257;52.298;13.690;2022-08-03T12:20:09;74512.66;;;-144.77;27.21
6449;BME280;3257;52.298;13.690;2022-08-03T12:22:37;74540.47;;;-144.77;27.56
6449;BME280;3257;52.298;13.690;2022-08-03T12:25:06;74522.59;;;-144.77;27.54
6449;BME280;3257;52.298;13.690;2022-08-03T12:27:33;74498.75;;;-144.77;27.90
6449;BME280;3257;52.298;13.690;2022-08-03T12:30:00;74488.81;;;-144.77;27.23
6449;BME280;3257;52.298;13.690;2022-08-03T12:32:29;74486.84;;;-144.77;28.22
6449;BME280;3257;52.298;13.690;2022-08-03T12:34:57;74470.94;;;-144.77;27.99
6449;BME280;3257;52.298;13.690;2022-08-03T12:37:27;74443.16;;;-144.77;27.64
6449;BME280;3257;52.298;13.690;2022-08-03T12:39:57;74419.31;;;-144.77;28.59
6449;BME280;3257;52.298;13.690;2022-08-03T12:42:37;74409.38;;;-144.77;28.26
6449;BME280;3257;52.298;13.690;2022-08-03T12:45:27;74409.38;;;-144.77;26.91
6449;BME280;3257;52.298;13.690;2022-08-03T12:47:54;74393.50;;;-144.77;26.26
6449;BME280;3257;52.298;13.690;2022-08-03T12:50:25;74385.56;;;-144.77;27.36
6449;BME280;3257;52.298;13.690;2022-08-03T12:52:52;74405.41;;;-144.77;27.02
6449;BME280;3257;52.298;13.690;2022-08-03T12:55:20;74391.53;;;-144.77;27.09
6449;BME280;3257;52.298;13.690;2022-08-03T12:57:47;74375.63;;;-144.77;27.06
6449;BME280;3257;52.298;13.690;2022-08-03T13:00:16;74357.75;;;-144.77;27.11
6449;BME280;3257;52.298;13.690;2022-08-03T13:03:07;74363.72;;;-144.77;26.91
6449;BME280;3257;52.298;13.690;2022-08-03T13:05:54;74383.56;;;-144.77;26.64
6449;BME280;3257;52.298;13.690;2022-08-03T13:08:22;74379.59;;;-144.77;27.64
6449;BME280;3257;52.298;13.690;2022-08-03T13:10:50;74361.72;;;-144.77;27.46
6449;BME280;3257;52.298;13.690;2022-08-03T13:13:17;74377.63;;;-144.77;26.72
6449;BME280;3257;52.298;13.690;2022-08-03T13:15:46;74373.66;;;-144.77;26.95
6449;BME280;3257;52.298;13.690;2022-08-03T13:18:13;74373.66;;;-144.77;26.46
6449;BME280;3257;52.298;13.690;2022-08-03T13:20:42;74413.38;;;-144.77;27.25
6449;BME280;3257;52.298;13.690;2022-08-03T13:23:09;74385.56;;;-144.77;28.21
6449;BME280;3257;52.298;13.690;2022-08-03T13:25:47;74401.44;;;-144.77;27.41
6449;BME280;3257;52.298;13.690;2022-08-03T13:28:21;74423.28;;;-144.77;27.98
6449;BME280;3257;52.298;13.690;2022-08-03T13:30:48;74453.09;;;-144.77;27.27
6449;BME280;3257;52.298;13.690;2022-08-03T13:33:14;74431.22;;;-144.77;27.01